sensor_id;sensor_type;location;lat;lon;timestamp;temperature;humidity
6102;DHT22;3081;50.584;7.032;2022-12-11T00:02:05;0.20;99.90
6102;DHT22;3081;50.584;7.032;2022-12-11T00:04:32;0.20;99.90
6102;DHT22;3081;50.584;7.032;2022-12-11T00:06:59;0.20;99.90
6102;DHT22;3081;50.584;7.032;2022-12-11T00:09:26;0.20;99.90
6102;DHT22;3081;50.584;7.032;2022-12-11T00:11:55;0.30;99.90
6102;DHT22;3081;50.584;7.032;2022-12-11T00:14:22;0.30;99.90
6102;DHT22;3081;50.584;7.032;2022-12-11T00:16:49;0.40;99.90
6102;DHT22;3081;50.584;7.032;2022-12-11T00:19:16;0.40;99.90
6102;DHT22;3081;50.584;7.032;2022-12-11T00:21:43;0.50;99.90
6102;DHT22;3081;50.584;7.032;2022-12-11T00:24:10;0.50;99.90
6102;DHT22;3081;50.584;7.032;2022-12-11T00:26:37;0.50;99.90
6102;DHT22;3081;50.584;7.032;2022-12-11T00:29:06;0.50;99.90
6102;DHT22;3081;50.584;7.032;2022-12-11T00:31:35;0.50;99.90
6102;DHT22;3081;50.584;7.032;2022-12-11T00:34:02;0.50;99.90
6102;DHT22;3081;50.584;7.032;2022-12-11T00:36:29;0.50;99.90
6102;DHT22;3081;50.584;7.032;2022-12-11T00:38:56;0.60;99.90
6102;DHT22;3081;50.584;7.032;2022-12-11T00:41:23;0.60;99.90
6102;DHT22;3081;50.584;7.032;2022-12-11T00:43:50;0.60;99.90
6102;DHT22;3081;50.584;7.032;2022-12-11T00:46:18;0.60;99.90
6102;DHT22;3081;50.584;7.032;2022-12-11T00:48:45;0.60;99.90
6102;DHT22;3081;50.584;7.032;2022-12-11T00:51:14;0.70;99.90
6102;DHT22;3081;50.584;7.032;2022-12-11T00:53:41;0.70;99.90
6102;DHT22;3081;50.584;7.032;2022-12-11T00:56:10;0.60;99.90
6102;DHT22;3081;50.584;7.032;2022-12-11T00:58:37;0.60;99.90
6102;DHT22;3081;50.584;7.032;2022-12-11T01:01:06;0.50;99.90
6102;DHT22;3081;50.584;7.032;2022-12-11T01:03:34;0.50;99.90
6102;DHT22;3081;50.584;7.032;2022-12-11T01:06:02;0.40;99.90
6102;DHT22;3081;50.584;7.032;2022-12-11T01:08:29;0.40;99.90
6102;DHT22;3081;50.584;7.032;2022-12-11T01:11:05;0.30;99.90
6102;DHT22;3081;50.584;7.032;2022-12-11T01:13:31;0.30;99.90
6102;DHT22;3081;50.584;7.032;2022-12-11T01:15:58;0.30;99.90
6102;DHT22;3081;50.584;7.032;2022-12-11T01:18:25;0.30;99.90
6102;DHT22;3081;50.584;7.032;2022-12-11T01:20:54;0.30;99.90
6102;DHT22;3081;50.584;7.032;2022-12-11T01:23:21;0.30;99.90
6102;DHT22;3081;50.584;7.032;2022-12-11T01:25:47;0.30;99.90
6102;DHT22;3081;50.584;7.032;2022-12-11T01:28:16;0.30;99.90
6102;DHT22;3081;50.584;7.032;2022-12-11T01:30:42;0.30;99.90
6102;DHT22;3081;50.584;7.032;2022-12-11T01:33:09;0.30;99.90
6102;DHT22;3081;50.584;7.032;2022-12-11T01:35:38;0.30;99.90
6102;DHT22;3081;50.584;7.032;2022-12-11T01:38:07;0.30;99.90
6102;DHT22;3081;50.584;7.032;2022-12-11T01:40:35;0.30;99.90
6102;DHT22;3081;50.584;7.032;2022-12-11T01:43:02;0.30;99.90
6102;DHT22;3081;50.584;7.032;2022-12-11T01:45:33;0.30;99.90
6102;DHT22;3081;50.584;7.032;2022-12-11T01:48:08;0.30;99.90
6102;DHT22;3081;50.584;7.032;2022-12-11T01:50:40;0.30;99.90
6102;DHT22;3081;50.584;7.032;2022-12-11T01:53:12;0.30;99.90
6102;DHT22;3081;50.584;7.032;2022-12-11T01:55:40;0.30;99.90
6102;DHT22;3081;50.584;7.032;2022-12-11T01:58:08;0.30;99.90
6102;DHT22;3081;50.584;7.032;2022-12-11T02:00:36;0.30;99.90
6102;DHT22;3081;50.584;7.032;2022-12-11T02:03:03;0.30;99.90
6102;DHT22;3081;50.584;7.032;2022-12-11T02:05:30;0.30;99.90
6102;DHT22;3081;50.584;7.032;2022-12-11T02:07:58;0.40;99.90
6102;DHT22;3081;50.584;7.032;2022-12-11T02:10:42;0.40;99.90
6102;DHT22;3081;50.584;7.032;2022-12-11T02:13:15;0.40;99.90
6102;DHT22;3081;50.584;7.032;2022-12-11T02:15:48;0.40;99.90
6102;DHT22;3081;50.584;7.032;2022-12-11T02:18:22;0.40;99.90
6102;DHT22;3081;50.584;7.032;2022-12-11T02:20:54;0.40;99.90
6102;DHT22;3081;50.584;7.032;2022-12-11T02:23:39;0.40;99.90
6102;DHT22;3081;50.584;7.032;2022-12-11T02:26:35;0.50;99.90
6102;DHT22;3081;50.584;7.032;2022-12-11T02:29:14;0.50;99.90
6102;DHT22;3081;50.584;7.032;2022-12-11T02:31:46;0.60;99.90
6102;DHT22;3081;50.584;7.032;2022-12-11T02:34:18;0.60;99.90
6102;DHT22;3081;50.584;7.032;2022-12-11T02:36:49;0.70;99.90
6102;DHT22;3081;50.584;7.032;2022-12-11T02:39:18;0.70;99.90
6102;DHT22;3081;50.584;7.032;2022-12-11T02:41:49;0.70;99.90
6102;DHT22;3081;50.584;7.032;2022-12-11T02:44:20;0.80;99.90
6102;DHT22;3081;50.584;7.032;2022-12-11T02:46:50;0.80;99.90
6102;DHT22;3081;50.584;7.032;2022-12-11T02:49:18;0.70;99.90
6102;DHT22;3081;50.584;7.032;2022-12-11T02:51:46;0.70;99.90
6102;DHT22;3081;50.584;7.032;2022-12-11T02:54:17;0.60;99.90
6102;DHT22;3081;50.584;7.032;2022-12-11T02:56:50;0.60;99.90
6102;DHT22;3081;50.584;7.032;2022-12-11T02:59:23;0.60;99.90
6102;DHT22;3081;50.584;7.032;2022-12-11T03:01:51;0.60;99.90
6102;DHT22;3081;50.584;7.032;2022-12-11T03:04:18;0.60;99.90
6102;DHT22;3081;50.584;7.032;2022-12-11T03:06:52;0.70;99.90
6102;DHT22;3081;50.584;7.032;2022-12-11T03:09:20;0.60;99.90
6102;DHT22;3081;50.584;7.032;2022-12-11T03:11:47;0.70;99.90
6102;DHT22;3081;50.584;7.032;2022-12-11T03:14:14;0.70;99.90
6102;DHT22;3081;50.584;7.032;2022-12-11T03:16:47;0.70;99.90
6102;DHT22;3081;50.584;7.032;2022-12-11T03:19:23;0.60;99.90
6102;DHT22;3081;50.584;7.032;2022-12-11T03:21:54;0.60;99.90
6102;DHT22;3081;50.584;7.032;2022-12-11T03:24:28;0.50;99.90
6102;DHT22;3081;50.584;7.032;2022-12-11T03:27:00;0.50;99.90
6102;DHT22;3081;50.584;7.032;2022-12-11T03:29:31;0.50;99.90
6102;DHT22;3081;50.584;7.032;2022-12-11T03:32:06;0.50;99.90
6102;DHT22;3081;50.584;7.032;2022-12-11T03:34:39;0.50;99.90
6102;DHT22;3081;50.584;7.032;2022-12-11T03:37:08;0.50;99.90
6102;DHT22;3081;50.584;7.032;2022-12-11T03:39:39;0.60;99.90
6102;DHT22;3081;50.584;7.032;2022-12-11T03:42:10;0.70;99.90
6102;DHT22;3081;50.584;7.032;2022-12-11T03:44:39;0.70;99.90
6102;DHT22;3081;50.584;7.032;2022-12-11T03:47:09;0.70;99.90
6102;DHT22;3081;50.584;7.032;2022-12-11T03:49:40;0.80;99.90
6102;DHT22;3081;50.584;7.032;2022-12-11T03:52:08;0.80;99.90
6102;DHT22;3081;50.584;7.032;2022-12-11T03:54:37;0.80;99.90
6102;DHT22;3081;50.584;7.032;2022-12-11T03:57:05;0.90;99.90
6102;DHT22;3081;50.584;7.032;2022-12-11T03:59:33;1.00;99.90
6102;DHT22;3081;50.584;7.032;2022-12-11T04:02:00;1.00;99.90
6102;DHT22;3081;50.584;7.032;2022-12-11T04:04:28;1.00;99.90
6102;DHT22;3081;50.584;7.032;2022-12-11T04:06:55;1.10;99.90
6102;DHT22;3081;50.584;7.032;2022-12-11T04:09:22;1.20;99.90
6102;DHT22;3081;50.584;7.032;2022-12-11T04:11:49;1.10;99.90
6102;DHT22;3081;50.584;7.032;2022-12-11T04:14:16;1.20;99.90
6102;DHT22;3081;50.584;7.032;2022-12-11T04:17:00;1.10;99.90
6102;DHT22;3081;50.584;7.032;2022-12-11T04:19:28;1.00;99.90
6102;DHT22;3081;50.584;7.032;2022-12-11T04:22:14;1.00;99.90
6102;DHT22;3081;50.584;7.032;2022-12-11T04:24:59;1.00;99.90
6102;DHT22;3081;50.584;7.032;2022-12-11T04:27:26;1.00;99.90
6102;DHT22;3081;50.584;7.032;2022-12-11T04:30:14;0.90;99.90
6102;DHT22;3081;50.584;7.032;2022-12-11T04:32:41;0.90;99.90
6102;DHT22;3081;50.584;7.032;2022-12-11T04:35:10;0.80;99.90
6102;DHT22;3081;50.584;7.032;2022-12-11T04:37:37;0.80;99.90
6102;DHT22;3081;50.584;7.032;2022-12-11T04:40:06;0.80;99.90
6102;DHT22;3081;50.584;7.032;2022-12-11T04:42:34;0.80;99.90
6102;DHT22;3081;50.584;7.032;2022-12-11T04:45:01;0.90;99.90
6102;DHT22;3081;50.584;7.032;2022-12-11T04:47:27;0.90;99.90
6102;DHT22;3081;50.584;7.032;2022-12-11T04:49:54;0.90;99.90
6102;DHT22;3081;50.584;7.032;2022-12-11T04:52:23;0.90;99.90
6102;DHT22;3081;50.584;7.032;2022-12-11T04:54:50;0.90;99.90
6102;DHT22;3081;50.584;7.032;2022-12-11T04:57:17;0.80;99.90
6102;DHT22;3081;50.584;7.032;2022-12-11T04:59:45;0.90;99.90
6102;DHT22;3081;50.584;7.032;2022-12-11T05:02:12;0.90;99.90
6102;DHT22;3081;50.584;7.032;2022-12-11T05:04:39;0.90;99.90
6102;DHT22;3081;50.584;7.032;2022-12-11T05:07:06;0.90;99.90
6102;DHT22;3081;50.584;7.032;2022-12-11T05:09:35;0.90;99.90
6102;DHT22;3081;50.584;7.032;2022-12-11T05:12:02;0.80;99.90
6102;DHT22;3081;50.584;7.032;2022-12-11T05:14:29;0.80;99.90
6102;DHT22;3081;50.584;7.032;2022-12-11T05:16:57;0.60;99.90
6102;DHT22;3081;50.584;7.032;2022-12-11T05:19:24;0.50;99.90
6102;DHT22;3081;50.584;7.032;2022-12-11T05:21:51;0.40;99.90
6102;DHT22;3081;50.584;7.032;2022-12-11T05:24:18;0.50;99.90
6102;DHT22;3081;50.584;7.032;2022-12-11T05:26:46;0.60;99.90
6102;DHT22;3081;50.584;7.032;2022-12-11T05:29:13;0.60;99.90
6102;DHT22;3081;50.584;7.032;2022-12-11T05:31:40;0.60;99.90
6102;DHT22;3081;50.584;7.032;2022-12-11T05:34:07;0.60;99.90
6102;DHT22;3081;50.584;7.032;2022-12-11T05:36:34;0.60;99.90
6102;DHT22;3081;50.584;7.032;2022-12-11T05:39:01;0.60;99.90
6102;DHT22;3081;50.584;7.032;2022-12-11T05:41:29;0.50;99.90
6102;DHT22;3081;50.584;7.032;2022-12-11T05:43:58;0.40;99.90
6102;DHT22;3081;50.584;7.032;2022-12-11T05:46:27;0.30;99.90
6102;DHT22;3081;50.584;7.032;2022-12-11T05:48:57;0.30;99.90
6102;DHT22;3081;50.584;7.032;2022-12-11T05:51:25;0.30;99.90
6102;DHT22;3081;50.584;7.032;2022-12-11T05:53:52;0.30;99.90
6102;DHT22;3081;50.584;7.032;2022-12-11T05:56:21;0.40;99.90
6102;DHT22;3081;50.584;7.032;2022-12-11T05:58:50;0.50;99.90
6102;DHT22;3081;50.584;7.032;2022-12-11T06:01:21;0.50;99.90
6102;DHT22;3081;50.584;7.032;2022-12-11T06:03:48;0.50;99.90
6102;DHT22;3081;50.584;7.032;2022-12-11T06:06:15;0.40;99.90
6102;DHT22;3081;50.584;7.032;2022-12-11T06:08:42;0.40;99.90
6102;DHT22;3081;50.584;7.032;2022-12-11T06:11:11;0.30;99.90
6102;DHT22;3081;50.584;7.032;2022-12-11T06:13:39;0.40;99.90
6102;DHT22;3081;50.584;7.032;2022-12-11T06:16:07;0.50;99.90
6102;DHT22;3081;50.584;7.032;2022-12-11T06:18:37;0.60;99.90
6102;DHT22;3081;50.584;7.032;2022-12-11T06:21:11;0.60;99.90
6102;DHT22;3081;50.584;7.032;2022-12-11T06:23:38;0.50;99.90
6102;DHT22;3081;50.584;7.032;2022-12-11T06:26:06;0.50;99.90
6102;DHT22;3081;50.584;7.032;2022-12-11T06:28:33;0.40;99.90
6102;DHT22;3081;50.584;7.032;2022-12-11T06:31:00;0.40;99.90
6102;DHT22;3081;50.584;7.032;2022-12-11T06:33:28;0.40;99.90
6102;DHT22;3081;50.584;7.032;2022-12-11T06:35:59;0.40;99.90
6102;DHT22;3081;50.584;7.032;2022-12-11T06:38:26;0.40;99.90
6102;DHT22;3081;50.584;7.032;2022-12-11T06:40:54;0.50;99.90
6102;DHT22;3081;50.584;7.032;2022-12-11T06:43:22;0.60;99.90
6102;DHT22;3081;50.584;7.032;2022-12-11T06:45:49;0.70;99.90
6102;DHT22;3081;50.584;7.032;2022-12-11T06:48:17;0.80;99.90
6102;DHT22;3081;50.584;7.032;2022-12-11T06:50:44;0.90;99.90
6102;DHT22;3081;50.584;7.032;2022-12-11T06:53:13;0.90;99.90
6102;DHT22;3081;50.584;7.032;2022-12-11T06:55:40;0.90;99.90
6102;DHT22;3081;50.584;7.032;2022-12-11T06:58:08;0.80;99.90
6102;DHT22;3081;50.584;7.032;2022-12-11T07:00:35;0.70;99.90
6102;DHT22;3081;50.584;7.032;2022-12-11T07:03:03;0.60;99.90
6102;DHT22;3081;50.584;7.032;2022-12-11T07:05:31;0.60;99.90
6102;DHT22;3081;50.584;7.032;2022-12-11T07:07:58;0.70;99.90
6102;DHT22;3081;50.584;7.032;2022-12-11T07:10:27;0.80;99.90
6102;DHT22;3081;50.584;7.032;2022-12-11T07:12:54;0.90;99.90
6102;DHT22;3081;50.584;7.032;2022-12-11T07:15:21;1.00;99.90
6102;DHT22;3081;50.584;7.032;2022-12-11T07:17:48;1.00;99.90
6102;DHT22;3081;50.584;7.032;2022-12-11T07:20:15;0.90;99.90
6102;DHT22;3081;50.584;7.032;2022-12-11T07:22:42;0.80;99.90
6102;DHT22;3081;50.584;7.032;2022-12-11T07:25:09;0.70;99.90
6102;DHT22;3081;50.584;7.032;2022-12-11T07:27:37;0.70;99.90
6102;DHT22;3081;50.584;7.032;2022-12-11T07:30:05;0.80;99.90
6102;DHT22;3081;50.584;7.032;2022-12-11T07:32:32;0.90;99.90
6102;DHT22;3081;50.584;7.032;2022-12-11T07:34:59;1.00;99.90
6102;DHT22;3081;50.584;7.032;2022-12-11T07:37:26;1.00;99.90
6102;DHT22;3081;50.584;7.032;2022-12-11T07:39:53;1.10;99.90
6102;DHT22;3081;50.584;7.032;2022-12-11T07:42:20;1.10;99.90
6102;DHT22;3081;50.584;7.032;2022-12-11T07:44:48;1.10;99.90
6102;DHT22;3081;50.584;7.032;2022-12-11T07:47:15;1.10;99.90
6102;DHT22;3081;50.584;7.032;2022-12-11T07:49:42;1.10;99.90
6102;DHT22;3081;50.584;7.032;2022-12-11T07:52:09;1.00;99.90
6102;DHT22;3081;50.584;7.032;2022-12-11T07:54:36;0.90;99.90
6102;DHT22;3081;50.584;7.032;2022-12-11T07:57:03;0.80;99.90
6102;DHT22;3081;50.584;7.032;2022-12-11T07:59:31;0.70;99.90
6102;DHT22;3081;50.584;7.032;2022-12-11T08:01:59;0.70;99.90
6102;DHT22;3081;50.584;7.032;2022-12-11T08:04:26;0.80;99.90
6102;DHT22;3081;50.584;7.032;2022-12-11T08:06:53;0.80;99.90
6102;DHT22;3081;50.584;7.032;2022-12-11T08:09:20;0.90;99.90
6102;DHT22;3081;50.584;7.032;2022-12-11T08:11:48;0.90;99.90
6102;DHT22;3081;50.584;7.032;2022-12-11T08:14:16;1.00;99.90
6102;DHT22;3081;50.584;7.032;2022-12-11T08:16:43;1.10;99.90
6102;DHT22;3081;50.584;7.032;2022-12-11T08:19:11;1.10;99.90
6102;DHT22;3081;50.584;7.032;2022-12-11T08:21:39;1.20;99.90
6102;DHT22;3081;50.584;7.032;2022-12-11T08:24:06;1.10;99.90
6102;DHT22;3081;50.584;7.032;2022-12-11T08:26:34;1.20;99.90
6102;DHT22;3081;50.584;7.032;2022-12-11T08:29:01;1.20;99.90
6102;DHT22;3081;50.584;7.032;2022-12-11T08:31:29;1.20;99.90
6102;DHT22;3081;50.584;7.032;2022-12-11T08:33:56;1.20;99.90
6102;DHT22;3081;50.584;7.032;2022-12-11T08:36:25;1.20;99.90
6102;DHT22;3081;50.584;7.032;2022-12-11T08:38:54;1.30;99.90
6102;DHT22;3081;50.584;7.032;2022-12-11T08:41:22;1.20;99.90
6102;DHT22;3081;50.584;7.032;2022-12-11T08:43:49;1.10;99.90
6102;DHT22;3081;50.584;7.032;2022-12-11T08:46:20;1.10;99.90
6102;DHT22;3081;50.584;7.032;2022-12-11T08:48:47;1.10;99.90
6102;DHT22;3081;50.584;7.032;2022-12-11T08:51:15;1.10;99.90
6102;DHT22;3081;50.584;7.032;2022-12-11T08:53:44;1.20;99.90
6102;DHT22;3081;50.584;7.032;2022-12-11T08:56:12;1.30;99.90
6102;DHT22;3081;50.584;7.032;2022-12-11T08:58:40;1.40;99.90
6102;DHT22;3081;50.584;7.032;2022-12-11T09:01:08;1.50;99.90
6102;DHT22;3081;50.584;7.032;2022-12-11T09:03:35;1.60;99.90
6102;DHT22;3081;50.584;7.032;2022-12-11T09:06:06;1.70;99.90
6102;DHT22;3081;50.584;7.032;2022-12-11T09:08:34;1.80;99.90
6102;DHT22;3081;50.584;7.032;2022-12-11T09:11:03;2.00;99.90
6102;DHT22;3081;50.584;7.032;2022-12-11T09:13:30;2.00;99.90
6102;DHT22;3081;50.584;7.032;2022-12-11T09:15:57;1.90;99.90
6102;DHT22;3081;50.584;7.032;2022-12-11T09:18:25;1.90;99.90
6102;DHT22;3081;50.584;7.032;2022-12-11T09:20:59;1.90;99.90
6102;DHT22;3081;50.584;7.032;2022-12-11T09:23:26;1.90;99.90
6102;DHT22;3081;50.584;7.032;2022-12-11T09:25:53;1.90;99.90
6102;DHT22;3081;50.584;7.032;2022-12-11T09:28:22;1.80;99.90
6102;DHT22;3081;50.584;7.032;2022-12-11T09:30:50;1.80;99.90
6102;DHT22;3081;50.584;7.032;2022-12-11T09:33:18;1.70;99.90
6102;DHT22;3081;50.584;7.032;2022-12-11T09:35:45;1.60;99.90
6102;DHT22;3081;50.584;7.032;2022-12-11T09:38:12;1.50;99.90
6102;DHT22;3081;50.584;7.032;2022-12-11T09:40:39;1.50;99.90
6102;DHT22;3081;50.584;7.032;2022-12-11T09:43:17;1.60;99.90
6102;DHT22;3081;50.584;7.032;2022-12-11T09:45:47;1.70;99.90
6102;DHT22;3081;50.584;7.032;2022-12-11T09:48:17;1.70;99.90
6102;DHT22;3081;50.584;7.032;2022-12-11T09:50:47;1.80;99.90
6102;DHT22;3081;50.584;7.032;2022-12-11T09:53:22;1.80;99.90
6102;DHT22;3081;50.584;7.032;2022-12-11T09:55:55;1.80;99.90
6102;DHT22;3081;50.584;7.032;2022-12-11T09:58:29;1.90;99.90
6102;DHT22;3081;50.584;7.032;2022-12-11T10:01:02;2.10;99.90
6102;DHT22;3081;50.584;7.032;2022-12-11T10:03:41;2.20;99.90
6102;DHT22;3081;50.584;7.032;2022-12-11T10:06:16;2.20;99.90
6102;DHT22;3081;50.584;7.032;2022-12-11T10:08:54;2.30;99.90
6102;DHT22;3081;50.584;7.032;2022-12-11T10:11:37;2.40;99.90
6102;DHT22;3081;50.584;7.032;2022-12-11T10:14:11;2.50;99.90
6102;DHT22;3081;50.584;7.032;2022-12-11T10:16:43;2.60;99.90
6102;DHT22;3081;50.584;7.032;2022-12-11T10:19:16;2.60;99.90
6102;DHT22;3081;50.584;7.032;2022-12-11T10:21:44;2.70;99.90
6102;DHT22;3081;50.584;7.032;2022-12-11T10:24:18;2.80;99.90
6102;DHT22;3081;50.584;7.032;2022-12-11T10:26:46;2.90;99.90
6102;DHT22;3081;50.584;7.032;2022-12-11T10:29:14;3.10;99.90
6102;DHT22;3081;50.584;7.032;2022-12-11T10:31:48;3.20;99.90
6102;DHT22;3081;50.584;7.032;2022-12-11T10:34:22;3.10;99.90
6102;DHT22;3081;50.584;7.032;2022-12-11T10:36:53;3.10;99.90
6102;DHT22;3081;50.584;7.032;2022-12-11T10:39:21;3.40;99.90
6102;DHT22;3081;50.584;7.032;2022-12-11T10:41:49;3.60;99.90
6102;DHT22;3081;50.584;7.032;2022-12-11T10:44:18;3.80;99.90
6102;DHT22;3081;50.584;7.032;2022-12-11T10:46:48;4.00;99.90
6102;DHT22;3081;50.584;7.032;2022-12-11T10:49:28;4.20;99.90
6102;DHT22;3081;50.584;7.032;2022-12-11T10:51:56;4.10;99.90
6102;DHT22;3081;50.584;7.032;2022-12-11T10:54:30;4.10;99.90
6102;DHT22;3081;50.584;7.032;2022-12-11T10:56:58;4.30;99.90
6102;DHT22;3081;50.584;7.032;2022-12-11T10:59:31;4.40;99.90
6102;DHT22;3081;50.584;7.032;2022-12-11T11:02:01;4.10;99.90
6102;DHT22;3081;50.584;7.032;2022-12-11T11:04:31;4.30;99.90
6102;DHT22;3081;50.584;7.032;2022-12-11T11:07:07;4.10;99.90
6102;DHT22;3081;50.584;7.032;2022-12-11T11:09:37;4.20;99.90
6102;DHT22;3081;50.584;7.032;2022-12-11T11:12:16;4.20;99.90
6102;DHT22;3081;50.584;7.032;2022-12-11T11:14:43;4.30;99.90
6102;DHT22;3081;50.584;7.032;2022-12-11T11:17:14;4.60;99.90
6102;DHT22;3081;50.584;7.032;2022-12-11T11:19:45;4.70;99.90
6102;DHT22;3081;50.584;7.032;2022-12-11T11:22:15;4.70;99.90
6102;DHT22;3081;50.584;7.032;2022-12-11T11:24:44;4.70;99.90
6102;DHT22;3081;50.584;7.032;2022-12-11T11:27:13;4.60;99.90
6102;DHT22;3081;50.584;7.032;2022-12-11T11:29:45;4.50;99.90
6102;DHT22;3081;50.584;7.032;2022-12-11T11:32:17;4.20;99.90
6102;DHT22;3081;50.584;7.032;2022-12-11T11:34:45;4.30;99.90
6102;DHT22;3081;50.584;7.032;2022-12-11T11:37:23;4.40;99.90
6102;DHT22;3081;50.584;7.032;2022-12-11T11:39:54;4.60;99.90
6102;DHT22;3081;50.584;7.032;2022-12-11T11:42:29;4.70;99.90
6102;DHT22;3081;50.584;7.032;2022-12-11T11:45:04;4.50;99.90
6102;DHT22;3081;50.584;7.032;2022-12-11T11:47:38;4.10;99.90
6102;DHT22;3081;50.584;7.032;2022-12-11T11:50:14;3.80;99.90
6102;DHT22;3081;50.584;7.032;2022-12-11T11:52:47;3.70;99.90
6102;DHT22;3081;50.584;7.032;2022-12-11T11:55:23;3.80;99.90
6102;DHT22;3081;50.584;7.032;2022-12-11T11:57:55;3.90;99.90
6102;DHT22;3081;50.584;7.032;2022-12-11T12:00:25;4.00;99.90
6102;DHT22;3081;50.584;7.032;2022-12-11T12:02:56;4.10;99.90
6102;DHT22;3081;50.584;7.032;2022-12-11T12:05:27;4.30;99.90
6102;DHT22;3081;50.584;7.032;2022-12-11T12:08:04;4.70;99.90
6102;DHT22;3081;50.584;7.032;2022-12-11T12:10:44;5.10;99.90
6102;DHT22;3081;50.584;7.032;2022-12-11T12:13:18;5.50;99.90
6102;DHT22;3081;50.584;7.032;2022-12-11T12:15:55;5.80;99.90
6102;DHT22;3081;50.584;7.032;2022-12-11T12:18:32;6.20;99.90
6102;DHT22;3081;50.584;7.032;2022-12-11T12:21:08;6.70;99.90
6102;DHT22;3081;50.584;7.032;2022-12-11T12:23:48;7.40;99.90
6102;DHT22;3081;50.584;7.032;2022-12-11T12:26:22;7.50;99.90
6102;DHT22;3081;50.584;7.032;2022-12-11T12:29:01;7.30;99.90
6102;DHT22;3081;50.584;7.032;2022-12-11T12:31:44;7.10;99.90
6102;DHT22;3081;50.584;7.032;2022-12-11T12:34:24;6.80;99.90
6102;DHT22;3081;50.584;7.032;2022-12-11T12:37:01;6.50;99.90
6102;DHT22;3081;50.584;7.032;2022-12-11T12:39:41;6.10;99.90
6102;DHT22;3081;50.584;7.032;2022-12-11T12:42:21;5.70;99.90
6102;DHT22;3081;50.584;7.032;2022-12-11T12:44:57;5.50;99.90
6102;DHT22;3081;50.584;7.032;2022-12-11T12:47:26;5.20;99.90
6102;DHT22;3081;50.584;7.032;2022-12-11T12:49:57;5.00;99.90
6102;DHT22;3081;50.584;7.032;2022-12-11T12:52:30;4.90;99.90
6102;DHT22;3081;50.584;7.032;2022-12-11T12:55:01;4.80;99.90
6102;DHT22;3081;50.584;7.032;2022-12-11T12:57:46;4.80;99.90
6102;DHT22;3081;50.584;7.032;2022-12-11T13:00:29;4.80;99.90
6102;DHT22;3081;50.584;7.032;2022-12-11T13:02:57;4.70;99.90
6102;DHT22;3081;50.584;7.032;2022-12-11T13:05:28;4.70;99.90
6102;DHT22;3081;50.584;7.032;2022-12-11T13:07:58;4.70;99.90
6102;DHT22;3081;50.584;7.032;2022-12-11T13:10:29;4.90;99.90
6102;DHT22;3081;50.584;7.032;2022-12-11T13:12:57;5.00;99.90
6102;DHT22;3081;50.584;7.032;2022-12-11T13:15:42;5.10;99.90
6102;DHT22;3081;50.584;7.032;2022-12-11T13:18:32;5.40;99.90
6102;DHT22;3081;50.584;7.032;2022-12-11T13:21:01;5.80;99.90
6102;DHT22;3081;50.584;7.032;2022-12-11T13:23:31;6.20;99.90
6102;DHT22;3081;50.584;7.032;2022-12-11T13:25:59;6.50;99.90
6102;DHT22;3081;50.584;7.032;2022-12-11T13:28:32;6.90;99.90
6102;DHT22;3081;50.584;7.032;2022-12-11T13:31:33;7.30;99.90
6102;DHT22;3081;50.584;7.032;2022-12-11T13:34:12;7.50;99.90
6102;DHT22;3081;50.584;7.032;2022-12-11T13:36:45;7.40;99.90
6102;DHT22;3081;50.584;7.032;2022-12-11T13:39:16;7.00;99.90
6102;DHT22;3081;50.584;7.032;2022-12-11T13:41:46;6.40;99.90
6102;DHT22;3081;50.584;7.032;2022-12-11T13:44:19;5.70;99.90
6102;DHT22;3081;50.584;7.032;2022-12-11T13:46:49;5.20;99.90
6102;DHT22;3081;50.584;7.032;2022-12-11T13:49:21;4.80;99.90
6102;DHT22;3081;50.584;7.032;2022-12-11T13:51:54;4.60;99.90
6102;DHT22;3081;50.584;7.032;2022-12-11T13:54:21;4.30;99.90
6102;DHT22;3081;50.584;7.032;2022-12-11T13:57:00;4.20;99.90
6102;DHT22;3081;50.584;7.032;2022-12-11T13:59:31;4.00;99.90
6102;DHT22;3081;50.584;7.032;2022-12-11T14:02:02;3.80;99.90
6102;DHT22;3081;50.584;7.032;2022-12-11T14:04:31;3.50;99.90
6102;DHT22;3081;50.584;7.032;2022-12-11T14:07:01;3.30;99.90
6102;DHT22;3081;50.584;7.032;2022-12-11T14:09:31;3.30;99.90
6102;DHT22;3081;50.584;7.032;2022-12-11T14:11:58;3.20;99.90
6102;DHT22;3081;50.584;7.032;2022-12-11T14:14:32;3.30;99.90
6102;DHT22;3081;50.584;7.032;2022-12-11T14:17:00;3.20;99.90
6102;DHT22;3081;50.584;7.032;2022-12-11T14:19:27;3.20;99.90
6102;DHT22;3081;50.584;7.032;2022-12-11T14:22:00;3.30;99.90
6102;DHT22;3081;50.584;7.032;2022-12-11T14:24:28;3.20;99.90
6102;DHT22;3081;50.584;7.032;2022-12-11T14:26:56;3.10;99.90
6102;DHT22;3081;50.584;7.032;2022-12-11T14:29:25;3.10;99.90
6102;DHT22;3081;50.584;7.032;2022-12-11T14:31:53;3.00;99.90
6102;DHT22;3081;50.584;7.032;2022-12-11T14:34:23;2.90;99.90
6102;DHT22;3081;50.584;7.032;2022-12-11T14:36:51;2.90;99.90
6102;DHT22;3081;50.584;7.032;2022-12-11T14:39:23;2.90;99.90
6102;DHT22;3081;50.584;7.032;2022-12-11T14:41:56;2.90;99.90
6102;DHT22;3081;50.584;7.032;2022-12-11T14:44:28;2.90;99.90
6102;DHT22;3081;50.584;7.032;2022-12-11T14:46:58;2.90;99.90
6102;DHT22;3081;50.584;7.032;2022-12-11T14:49:44;2.90;99.90
6102;DHT22;3081;50.584;7.032;2022-12-11T14:52:15;2.90;99.90
6102;DHT22;3081;50.584;7.032;2022-12-11T14:54:46;2.80;99.90
6102;DHT22;3081;50.584;7.032;2022-12-11T14:57:19;2.80;99.90
6102;DHT22;3081;50.584;7.032;2022-12-11T14:59:48;2.70;99.90
6102;DHT22;3081;50.584;7.032;2022-12-11T15:02:29;2.70;99.90
6102;DHT22;3081;50.584;7.032;2022-12-11T15:07:52;2.60;99.90
6102;DHT22;3081;50.584;7.032;2022-12-11T15:10:28;2.60;99.90
6102;DHT22;3081;50.584;7.032;2022-12-11T15:12:57;2.50;99.90
6102;DHT22;3081;50.584;7.032;2022-12-11T15:15:25;2.50;99.90
6102;DHT22;3081;50.584;7.032;2022-12-11T15:17:53;2.50;99.90
6102;DHT22;3081;50.584;7.032;2022-12-11T15:20:22;2.50;99.90
6102;DHT22;3081;50.584;7.032;2022-12-11T15:22:50;2.40;99.90
6102;DHT22;3081;50.584;7.032;2022-12-11T15:25:18;2.40;99.90
6102;DHT22;3081;50.584;7.032;2022-12-11T15:27:51;2.40;99.90
6102;DHT22;3081;50.584;7.032;2022-12-11T15:30:32;2.50;99.90
6102;DHT22;3081;50.584;7.032;2022-12-11T15:33:19;2.40;99.90
6102;DHT22;3081;50.584;7.032;2022-12-11T15:35:58;2.50;99.90
6102;DHT22;3081;50.584;7.032;2022-12-11T15:38:36;2.40;99.90
6102;DHT22;3081;50.584;7.032;2022-12-11T15:41:05;2.40;99.90
6102;DHT22;3081;50.584;7.032;2022-12-11T15:43:38;2.40;99.90
6102;DHT22;3081;50.584;7.032;2022-12-11T15:46:05;2.40;99.90
6102;DHT22;3081;50.584;7.032;2022-12-11T15:48:32;2.30;99.90
6102;DHT22;3081;50.584;7.032;2022-12-11T15:50:59;2.40;99.90
6102;DHT22;3081;50.584;7.032;2022-12-11T15:53:26;2.30;99.90
6102;DHT22;3081;50.584;7.032;2022-12-11T15:55:53;2.30;99.90
6102;DHT22;3081;50.584;7.032;2022-12-11T15:58:21;2.30;99.90
6102;DHT22;3081;50.584;7.032;2022-12-11T16:00:50;2.30;99.90
6102;DHT22;3081;50.584;7.032;2022-12-11T16:03:19;2.30;99.90
6102;DHT22;3081;50.584;7.032;2022-12-11T16:05:47;2.30;99.90
6102;DHT22;3081;50.584;7.032;2022-12-11T16:08:16;2.30;99.90
6102;DHT22;3081;50.584;7.032;2022-12-11T16:10:44;2.30;99.90
6102;DHT22;3081;50.584;7.032;2022-12-11T16:13:12;2.30;99.90
6102;DHT22;3081;50.584;7.032;2022-12-11T16:15:41;2.30;99.90
6102;DHT22;3081;50.584;7.032;2022-12-11T16:18:12;2.30;99.90
6102;DHT22;3081;50.584;7.032;2022-12-11T16:20:41;2.30;99.90
6102;DHT22;3081;50.584;7.032;2022-12-11T16:23:09;2.30;99.90
6102;DHT22;3081;50.584;7.032;2022-12-11T16:25:36;2.10;99.90
6102;DHT22;3081;50.584;7.032;2022-12-11T16:28:04;2.30;99.90
6102;DHT22;3081;50.584;7.032;2022-12-11T16:30:33;2.30;99.90
6102;DHT22;3081;50.584;7.032;2022-12-11T16:33:01;2.30;99.90
6102;DHT22;3081;50.584;7.032;2022-12-11T16:35:30;2.30;99.90
6102;DHT22;3081;50.584;7.032;2022-12-11T16:37:57;2.30;99.90
6102;DHT22;3081;50.584;7.032;2022-12-11T16:40:24;2.30;99.90